createdAt,value
2019-01-10T00:00:42.449Z,0.90
2019-01-10T00:03:20.229Z,0.63
2019-01-10T00:05:51.661Z,1.00
2019-01-10T00:08:39.927Z,0.73
2019-01-10T00:11:10.162Z,0.93
2019-01-10T00:13:43.347Z,0.80
2019-01-10T00:16:16.257Z,1.00
2019-01-10T00:18:52.732Z,0.90
2019-01-10T00:21:30.338Z,1.10
2019-01-10T00:24:11.922Z,1.20
2019-01-10T00:26:45.041Z,1.27
2019-01-10T00:29:30.585Z,1.00
2019-01-10T00:32:10.913Z,1.10
2019-01-10T00:34:39.359Z,0.80
2019-01-10T00:37:12.890Z,0.90
2019-01-10T00:39:53.827Z,0.80
2019-01-10T00:42:26.668Z,0.90
2019-01-10T00:44:59.180Z,1.17
2019-01-10T00:47:44.695Z,0.93
2019-01-10T00:50:21.024Z,1.03
2019-01-10T00:52:54.996Z,0.77
2019-01-10T00:55:36.377Z,1.00
2019-01-10T00:58:07.653Z,0.97
2019-01-10T01:00:51.653Z,1.30
2019-01-10T01:03:25.909Z,0.93
2019-01-10T01:06:11.572Z,0.87
2019-01-10T01:08:39.353Z,1.00
2019-01-10T01:11:10.498Z,1.03
2019-01-10T01:13:53.570Z,1.07
2019-01-10T01:16:37.671Z,1.00
2019-01-10T01:19:12.129Z,1.20
2019-01-10T01:21:43.142Z,1.03
2019-01-10T01:24:14.287Z,0.57
2019-01-10T01:26:45.866Z,1.50
2019-01-10T01:29:18.471Z,1.10
2019-01-10T01:31:50.302Z,0.90
2019-01-10T01:34:26.995Z,1.00
2019-01-10T01:36:59.775Z,0.83
2019-01-10T01:39:43.156Z,0.93
2019-01-10T01:42:17.844Z,0.70
2019-01-10T01:44:49.031Z,0.97
2019-01-10T01:47:31.675Z,0.80
2019-01-10T01:50:21.168Z,1.00
2019-01-10T01:52:53.653Z,1.03
2019-01-10T01:55:25.057Z,0.83
2019-01-10T01:58:17.979Z,0.80
2019-01-10T02:01:11.612Z,1.07
2019-01-10T02:03:51.368Z,0.80
2019-01-10T02:06:43.838Z,0.87
2019-01-10T02:09:17.542Z,0.90
2019-01-10T02:11:48.909Z,0.80
2019-01-10T02:14:27.276Z,0.70
2019-01-10T02:17:16.886Z,0.60
2019-01-10T02:19:50.492Z,0.77
2019-01-10T02:22:44.500Z,0.50
2019-01-10T02:25:31.163Z,0.70
2019-01-10T02:28:05.186Z,0.80
2019-01-10T02:30:43.797Z,0.40
2019-01-10T02:33:34.369Z,0.50
2019-01-10T02:36:17.977Z,0.70
2019-01-10T02:38:52.612Z,0.50
2019-01-10T02:41:23.599Z,0.50
2019-01-10T02:44:05.710Z,0.87
2019-01-10T02:46:36.978Z,0.50
2019-01-10T02:49:14.488Z,0.53
2019-01-10T02:51:51.113Z,0.60
2019-01-10T02:54:35.296Z,1.00
2019-01-10T02:57:14.285Z,0.60
2019-01-10T02:59:48.579Z,0.53
2019-01-10T03:02:21.385Z,0.60
2019-01-10T03:04:53.030Z,0.70
2019-01-10T03:07:31.025Z,0.80
2019-01-10T03:10:05.242Z,0.70
2019-01-10T03:12:48.393Z,0.50
2019-01-10T03:15:32.159Z,0.60
2019-01-10T03:18:06.762Z,0.63
2019-01-10T03:20:42.304Z,0.70
2019-01-10T03:23:34.033Z,0.63
2019-01-10T03:26:09.946Z,0.77
2019-01-10T03:28:51.473Z,0.60
2019-01-10T03:31:36.771Z,0.83
2019-01-10T03:34:25.318Z,1.00
2019-01-10T03:37:06.490Z,0.70
2019-01-10T03:39:49.051Z,0.50
2019-01-10T03:42:21.362Z,0.40
2019-01-10T03:44:56.709Z,0.70
2019-01-10T03:47:39.251Z,0.60
2019-01-10T03:50:11.604Z,0.50
2019-01-10T03:52:54.844Z,0.70
2019-01-10T03:55:27.100Z,0.90
2019-01-10T03:57:58.373Z,0.60
2019-01-10T04:00:29.479Z,0.50
2019-01-10T04:03:01.114Z,0.80
2019-01-10T04:05:36.933Z,0.70
2019-01-10T04:08:08.198Z,0.63
2019-01-10T04:10:41.634Z,0.70
2019-01-10T04:13:21.843Z,0.53
2019-01-10T04:15:56.281Z,0.63
2019-01-10T04:18:27.293Z,0.50
2019-01-10T04:20:58.963Z,0.60
2019-01-10T04:23:32.022Z,0.40
2019-01-10T04:26:05.339Z,0.70
2019-01-10T04:28:39.547Z,0.63
2019-01-10T04:31:23.860Z,0.60
2019-01-10T04:33:55.171Z,0.67
2019-01-10T04:36:30.513Z,0.53
2019-01-10T04:39:01.655Z,0.63
2019-01-10T04:41:34.680Z,0.63
2019-01-10T04:44:07.212Z,0.67
2019-01-10T04:46:38.787Z,0.50
2019-01-10T04:49:09.961Z,0.87
2019-01-10T04:51:40.757Z,0.50
2019-01-10T04:54:11.874Z,0.43
2019-01-10T04:56:44.628Z,0.70
2019-01-10T04:59:23.990Z,0.60
2019-01-10T05:01:56.916Z,0.77
2019-01-10T05:04:28.486Z,0.60
2019-01-10T05:07:05.527Z,0.90
2019-01-10T05:09:38.335Z,0.70
2019-01-10T05:12:10.029Z,0.73
2019-01-10T05:14:41.216Z,0.70
2019-01-10T05:17:12.182Z,0.70
2019-01-10T05:19:43.476Z,0.87
2019-01-10T05:22:14.769Z,0.40
2019-01-10T05:24:46.254Z,0.60
2019-01-10T05:27:20.274Z,0.70
2019-01-10T05:29:51.813Z,0.93
2019-01-10T05:32:22.689Z,0.53
2019-01-10T05:34:54.100Z,0.63
2019-01-10T05:37:26.824Z,0.70
2019-01-10T05:39:59.142Z,0.80
2019-01-10T05:42:33.490Z,0.57
2019-01-10T05:45:09.605Z,0.67
2019-01-10T05:47:42.929Z,0.70
2019-01-10T05:50:18.169Z,0.67
2019-01-10T05:53:02.569Z,0.60
2019-01-10T05:55:36.825Z,0.90
2019-01-10T05:58:07.905Z,0.70
2019-01-10T06:00:38.887Z,0.77
2019-01-10T06:03:16.771Z,0.70
2019-01-10T06:05:50.820Z,0.80
2019-01-10T06:08:29.531Z,0.93
2019-01-10T06:11:00.325Z,0.70
2019-01-10T06:13:31.399Z,0.60
2019-01-10T06:16:03.047Z,0.70
2019-01-10T06:18:34.715Z,0.80
2019-01-10T06:21:17.310Z,0.63
2019-01-10T06:24:01.230Z,0.90
2019-01-10T06:26:35.816Z,0.67
2019-01-10T06:29:07.593Z,0.70
2019-01-10T06:31:43.407Z,1.33
2019-01-10T06:34:22.345Z,1.03
2019-01-10T06:36:54.865Z,0.87
2019-01-10T06:39:34.850Z,0.77
2019-01-10T06:42:11.788Z,0.93
2019-01-10T06:44:50.715Z,1.00
2019-01-10T06:47:23.570Z,0.90
2019-01-10T06:49:55.183Z,0.77
2019-01-10T06:52:31.113Z,1.00
2019-01-10T06:55:19.678Z,1.00
2019-01-10T06:57:58.024Z,0.97
2019-01-10T07:00:35.826Z,0.90
2019-01-10T07:03:08.966Z,0.87
2019-01-10T07:05:43.705Z,0.90
2019-01-10T07:08:15.826Z,0.80
2019-01-10T07:10:46.775Z,0.90
2019-01-10T07:13:27.435Z,0.90
2019-01-10T07:16:07.733Z,0.90
2019-01-10T07:18:45.184Z,0.70
2019-01-10T07:21:20.611Z,0.87
2019-01-10T07:23:51.912Z,0.97
2019-01-10T07:26:23.025Z,0.77
2019-01-10T07:28:56.087Z,0.67
2019-01-10T07:31:45.352Z,0.70
2019-01-10T07:34:16.661Z,1.10
2019-01-10T07:36:51.231Z,0.70
2019-01-10T07:39:23.544Z,1.00
2019-01-10T07:42:00.326Z,1.10
2019-01-10T07:44:39.444Z,0.93
2019-01-10T07:47:10.702Z,0.97
2019-01-10T07:49:41.692Z,0.70
2019-01-10T07:52:12.825Z,0.90
2019-01-10T07:54:47.960Z,0.90
2019-01-10T07:57:25.025Z,0.90
2019-01-10T08:00:13.848Z,0.70
2019-01-10T08:02:45.337Z,1.10
2019-01-10T08:05:17.442Z,0.87
2019-01-10T08:07:48.747Z,1.00
2019-01-10T08:10:19.931Z,1.00
2019-01-10T08:12:51.293Z,1.00
2019-01-10T08:15:22.816Z,1.00
2019-01-10T08:17:54.360Z,1.20
2019-01-10T08:20:25.858Z,1.00
2019-01-10T08:22:59.566Z,1.27
2019-01-10T08:25:30.726Z,0.80
2019-01-10T08:28:01.649Z,1.00
2019-01-10T08:30:32.736Z,1.00
2019-01-10T08:33:03.945Z,1.00
2019-01-10T08:35:35.348Z,1.30
2019-01-10T08:38:10.863Z,1.00
2019-01-10T08:40:45.138Z,1.07
2019-01-10T08:43:22.318Z,1.00
2019-01-10T08:45:53.816Z,0.87
2019-01-10T08:48:24.887Z,0.97
2019-01-10T08:50:56.276Z,0.90
2019-01-10T08:53:27.657Z,0.80
2019-01-10T08:55:58.527Z,0.70
2019-01-10T08:58:30.055Z,0.90
2019-01-10T09:01:04.081Z,1.27
2019-01-10T09:03:37.445Z,1.00
2019-01-10T09:06:16.760Z,0.93
2019-01-10T09:08:47.875Z,0.90
2019-01-10T09:11:19.114Z,1.03
2019-01-10T09:13:53.121Z,1.10
2019-01-10T09:16:33.366Z,1.10
2019-01-10T09:19:04.410Z,1.10
2019-01-10T09:21:37.587Z,1.20
2019-01-10T09:24:09.334Z,1.10
2019-01-10T09:26:48.379Z,1.37
2019-01-10T09:29:22.769Z,1.40
2019-01-10T09:32:05.085Z,1.73
2019-01-10T09:34:37.574Z,1.43
2019-01-10T09:37:08.589Z,1.23
2019-01-10T09:39:39.607Z,1.33
2019-01-10T09:42:13.846Z,1.30
2019-01-10T09:44:48.782Z,1.30
2019-01-10T09:47:29.709Z,1.27
2019-01-10T09:50:03.577Z,1.30
2019-01-10T09:52:40.626Z,1.13
2019-01-10T09:55:12.563Z,1.30
2019-01-10T09:57:52.308Z,1.30
2019-01-10T10:00:26.749Z,1.33
2019-01-10T10:03:09.155Z,1.30
2019-01-10T10:05:40.093Z,1.27
2019-01-10T10:08:11.370Z,1.17
2019-01-10T10:10:42.367Z,1.40
2019-01-10T10:13:13.381Z,1.37
2019-01-10T10:15:52.304Z,1.17
2019-01-10T10:18:17.212Z,1.70
2019-01-10T10:20:47.904Z,1.50
2019-01-10T10:23:26.590Z,1.57
2019-01-10T10:25:51.653Z,1.80
2019-01-10T10:28:22.801Z,1.40
2019-01-10T10:30:55.141Z,1.53
2019-01-10T10:33:26.255Z,1.40
2019-01-10T10:35:57.056Z,1.40
2019-01-10T10:38:27.808Z,1.20
2019-01-10T10:40:58.683Z,1.30
2019-01-10T10:43:29.716Z,1.40
2019-01-10T10:46:01.606Z,1.63
2019-01-10T10:48:32.895Z,1.50
2019-01-10T10:51:03.641Z,1.40
2019-01-10T10:53:34.330Z,1.50
2019-01-10T10:56:05.680Z,1.77
2019-01-10T10:58:36.748Z,1.67
2019-01-10T11:01:07.818Z,1.27
2019-01-10T11:03:38.940Z,1.53
2019-01-10T11:06:09.831Z,1.57
2019-01-10T11:08:40.613Z,1.30
2019-01-10T11:11:11.445Z,1.63
2019-01-10T11:13:44.538Z,1.37
2019-01-10T11:16:15.203Z,1.50
2019-01-10T11:18:46.052Z,1.47
2019-01-10T11:21:16.744Z,1.50
2019-01-10T11:23:47.825Z,1.47
2019-01-10T11:26:18.573Z,1.60
2019-01-10T11:28:49.566Z,1.30
2019-01-10T11:31:20.345Z,1.67
2019-01-10T11:33:53.025Z,1.90
2019-01-10T11:36:23.769Z,1.90
2019-01-10T11:38:54.998Z,1.77
2019-01-10T11:41:25.665Z,1.60
2019-01-10T11:43:56.558Z,1.80
2019-01-10T11:46:27.558Z,1.43
2019-01-10T11:48:58.993Z,1.80
2019-01-10T11:51:29.841Z,1.70
2019-01-10T11:54:00.757Z,1.30
2019-01-10T11:56:32.924Z,1.50
2019-01-10T11:59:03.502Z,1.70
2019-01-10T12:01:34.305Z,1.40
2019-01-10T12:04:05.450Z,1.60
2019-01-10T12:06:37.485Z,1.57
2019-01-10T12:09:08.724Z,1.40
2019-01-10T12:11:39.727Z,1.37
2019-01-10T12:14:10.794Z,1.30
2019-01-10T12:16:41.691Z,1.40
2019-01-10T12:19:12.875Z,1.23
2019-01-10T12:21:43.433Z,1.37
2019-01-10T12:24:14.453Z,1.40
2019-01-10T12:26:45.348Z,1.50
2019-01-10T12:29:16.325Z,1.60
2019-01-10T12:31:48.557Z,1.50
2019-01-10T12:34:19.742Z,1.53
2019-01-10T12:36:50.672Z,1.33
2019-01-10T12:39:21.663Z,1.33
2019-01-10T12:41:52.754Z,1.40
2019-01-10T12:44:23.682Z,1.50
2019-01-10T12:46:54.382Z,1.30
2019-01-10T12:49:26.262Z,1.47
2019-01-10T12:51:59.193Z,1.20
2019-01-10T12:54:30.153Z,1.47
2019-01-10T12:57:01.324Z,1.23
2019-01-10T12:59:32.421Z,1.20
2019-01-10T13:02:06.965Z,1.00
2019-01-10T13:04:38.272Z,1.50
2019-01-10T13:07:10.388Z,1.20
2019-01-10T13:09:41.197Z,1.13
2019-01-10T13:12:13.225Z,1.33
2019-01-10T13:14:44.073Z,1.23
2019-01-10T13:17:16.037Z,1.37
2019-01-10T13:19:46.988Z,1.10
2019-01-10T13:22:17.693Z,1.10
2019-01-10T13:24:48.986Z,1.17
2019-01-10T13:27:20.177Z,1.10
2019-01-10T13:29:50.940Z,1.00
2019-01-10T13:32:21.730Z,1.10
2019-01-10T13:34:52.729Z,1.00
2019-01-10T13:37:23.736Z,1.00
2019-01-10T13:39:55.290Z,1.00
2019-01-10T13:42:26.025Z,0.90
2019-01-10T13:44:56.746Z,1.10
2019-01-10T13:47:27.797Z,1.20
2019-01-10T13:49:58.869Z,0.90
2019-01-10T13:52:29.891Z,1.00
2019-01-10T13:55:00.864Z,1.27
2019-01-10T13:57:32.285Z,1.00
2019-01-10T14:00:03.089Z,0.90
2019-01-10T14:02:33.971Z,1.00
2019-01-10T14:05:10.519Z,1.00
2019-01-10T14:07:38.492Z,1.00
2019-01-10T14:10:10.384Z,1.00
2019-01-10T14:12:41.413Z,0.70
2019-01-10T14:15:15.169Z,0.90
2019-01-10T14:17:46.482Z,1.10
2019-01-10T14:20:18.037Z,1.00
2019-01-10T14:22:49.297Z,0.87
2019-01-10T14:25:20.494Z,1.10
2019-01-10T14:27:51.265Z,0.83
2019-01-10T14:30:43.409Z,0.90
2019-01-10T14:33:14.997Z,1.07
2019-01-10T14:35:45.927Z,0.80
2019-01-10T14:38:18.838Z,0.97
2019-01-10T14:40:49.988Z,0.80
2019-01-10T14:43:21.229Z,0.80
2019-01-10T14:45:52.007Z,0.83
2019-01-10T14:48:22.908Z,0.87
2019-01-10T14:50:54.279Z,0.97
2019-01-10T14:53:25.329Z,0.83
2019-01-10T14:55:56.188Z,0.90
2019-01-10T14:58:26.865Z,0.93
2019-01-10T15:00:57.755Z,0.87
2019-01-10T15:03:28.921Z,1.13
2019-01-10T15:05:59.704Z,0.90
2019-01-10T15:08:30.603Z,1.10
2019-01-10T15:11:02.196Z,0.60
2019-01-10T15:13:33.215Z,1.50
2019-01-10T15:16:04.501Z,0.90
2019-01-10T15:18:35.326Z,1.03
2019-01-10T15:21:06.683Z,1.00
2019-01-10T15:23:37.953Z,1.00
2019-01-10T15:26:08.999Z,0.93
2019-01-10T15:28:39.992Z,1.07
2019-01-10T15:31:10.860Z,0.90
2019-01-10T15:33:41.708Z,1.10
2019-01-10T15:36:13.697Z,1.00
2019-01-10T15:38:44.369Z,1.10
2019-01-10T15:41:15.551Z,1.00
2019-01-10T15:43:46.459Z,1.10
2019-01-10T15:46:17.169Z,0.90
2019-01-10T15:48:48.161Z,1.03
2019-01-10T15:51:20.488Z,1.10
2019-01-10T15:53:51.445Z,0.80
2019-01-10T15:56:22.269Z,0.90
2019-01-10T15:58:53.426Z,1.20
2019-01-10T16:01:24.101Z,1.00
2019-01-10T16:03:54.802Z,1.27
2019-01-10T16:06:27.356Z,1.00
2019-01-10T16:08:58.511Z,1.03
2019-01-10T16:11:31.421Z,1.10
2019-01-10T16:14:02.568Z,1.07
2019-01-10T16:16:33.608Z,1.10
2019-01-10T16:19:04.625Z,1.00
2019-01-10T16:21:35.561Z,1.20
2019-01-10T16:24:06.165Z,1.47
2019-01-10T16:26:36.934Z,1.20
2019-01-10T16:29:08.059Z,1.10
2019-01-10T16:31:38.882Z,1.10
2019-01-10T16:34:09.578Z,1.10
2019-01-10T16:36:40.776Z,1.07
2019-01-10T16:39:11.508Z,1.20
2019-01-10T16:41:42.346Z,1.17
2019-01-10T16:44:13.379Z,1.40
2019-01-10T16:46:44.005Z,1.10
2019-01-10T16:49:15.136Z,1.17
2019-01-10T16:51:46.153Z,1.23
2019-01-10T16:54:16.929Z,1.07
2019-01-10T16:56:48.096Z,1.03
2019-01-10T16:59:18.909Z,1.10
2019-01-10T17:01:50.117Z,1.30
2019-01-10T17:04:20.814Z,1.20
2019-01-10T17:06:52.364Z,1.10
2019-01-10T17:09:23.679Z,1.07
2019-01-10T17:11:54.480Z,1.30
2019-01-10T17:14:25.528Z,1.03
2019-01-10T17:16:56.296Z,1.10
2019-01-10T17:19:26.956Z,1.03
2019-01-10T17:21:57.837Z,1.00
2019-01-10T17:24:28.742Z,1.00
2019-01-10T17:26:59.974Z,0.70
2019-01-10T17:29:31.917Z,1.00
2019-01-10T17:32:02.898Z,0.90
2019-01-10T17:34:34.027Z,0.90
2019-01-10T17:37:05.158Z,0.80
2019-01-10T17:39:36.115Z,1.10
2019-01-10T17:42:08.502Z,0.77
2019-01-10T17:44:39.467Z,0.90
2019-01-10T17:47:10.307Z,1.13
2019-01-10T17:49:41.567Z,1.00
2019-01-10T17:52:12.255Z,0.80
2019-01-10T17:54:43.280Z,0.80
2019-01-10T17:57:15.916Z,0.90
2019-01-10T17:59:46.631Z,1.10
2019-01-10T18:02:17.556Z,1.00
2019-01-10T18:04:48.262Z,1.10
2019-01-10T18:07:19.077Z,0.90
2019-01-10T18:09:50.451Z,0.90
2019-01-10T18:12:21.088Z,1.20
2019-01-10T18:14:52.333Z,1.20
2019-01-10T18:17:23.619Z,1.20
2019-01-10T18:19:54.314Z,1.20
2019-01-10T18:22:25.543Z,1.10
2019-01-10T18:24:56.619Z,1.13
2019-01-10T18:27:28.102Z,1.20
2019-01-10T18:29:59.126Z,1.10
2019-01-10T18:32:30.177Z,1.20
2019-01-10T18:35:02.810Z,1.00
2019-01-10T18:37:33.460Z,1.50
2019-01-10T18:40:04.997Z,1.20
2019-01-10T18:42:36.716Z,1.10
2019-01-10T18:45:09.544Z,1.20
2019-01-10T18:47:40.630Z,1.07
2019-01-10T18:50:14.637Z,1.13
2019-01-10T18:52:47.424Z,1.23
2019-01-10T18:55:18.474Z,1.40
2019-01-10T18:57:49.369Z,1.20
2019-01-10T19:00:25.325Z,1.30
2019-01-10T19:02:58.078Z,1.23
2019-01-10T19:05:30.242Z,1.30
2019-01-10T19:08:01.439Z,1.27
2019-01-10T19:10:33.888Z,1.30
2019-01-10T19:13:04.505Z,1.03
2019-01-10T19:15:35.576Z,1.07
2019-01-10T19:18:12.941Z,1.40
2019-01-10T19:20:43.754Z,1.30
2019-01-10T19:23:14.803Z,1.37
2019-01-10T19:25:45.872Z,1.30
2019-01-10T19:28:17.036Z,1.20
2019-01-10T19:30:47.718Z,1.20
2019-01-10T19:33:18.882Z,1.40
2019-01-10T19:35:49.382Z,1.30
2019-01-10T19:38:20.373Z,1.30
2019-01-10T19:40:51.313Z,1.27
2019-01-10T19:43:24.297Z,1.27
2019-01-10T19:45:56.044Z,1.50
2019-01-10T19:48:27.016Z,1.77
2019-01-10T19:50:58.329Z,1.13
2019-01-10T19:53:29.192Z,1.20
2019-01-10T19:56:00.171Z,1.20
2019-01-10T19:58:32.125Z,1.53
2019-01-10T20:01:03.153Z,1.50
2019-01-10T20:03:34.446Z,1.50
2019-01-10T20:06:05.651Z,1.57
2019-01-10T20:08:37.628Z,1.30
2019-01-10T20:11:08.889Z,1.30
2019-01-10T20:13:39.771Z,1.40
2019-01-10T20:16:10.884Z,1.40
2019-01-10T20:18:41.728Z,1.20
2019-01-10T20:21:12.751Z,1.60
2019-01-10T20:23:43.886Z,1.40
2019-01-10T20:26:14.451Z,1.30
2019-01-10T20:28:45.234Z,1.83
2019-01-10T20:31:16.262Z,1.80
2019-01-10T20:33:48.925Z,1.87
2019-01-10T20:36:20.107Z,1.50
2019-01-10T20:38:51.209Z,1.67
2019-01-10T20:41:22.363Z,1.43
2019-01-10T20:43:53.188Z,1.70
2019-01-10T20:46:24.148Z,1.63
2019-01-10T20:48:54.762Z,1.70
2019-01-10T20:51:26.197Z,1.70
2019-01-10T20:53:57.259Z,1.43
2019-01-10T20:56:28.333Z,1.50
2019-01-10T20:58:59.168Z,1.63
2019-01-10T21:01:30.097Z,1.73
2019-01-10T21:04:01.190Z,1.90
2019-01-10T21:06:32.457Z,1.70
2019-01-10T21:09:04.030Z,1.90
2019-01-10T21:11:35.188Z,1.70
2019-01-10T21:14:06.392Z,2.00
2019-01-10T21:16:37.019Z,1.80
2019-01-10T21:19:08.355Z,1.80
2019-01-10T21:21:39.028Z,2.00
2019-01-10T21:24:09.790Z,2.00
2019-01-10T21:26:40.736Z,1.87
2019-01-10T21:29:21.689Z,1.87
2019-01-10T21:31:52.520Z,1.90
2019-01-10T21:34:23.752Z,2.17
2019-01-10T21:36:55.604Z,2.07
2019-01-10T21:39:27.531Z,2.63
2019-01-10T21:41:58.537Z,2.37
2019-01-10T21:44:29.680Z,1.93
2019-01-10T21:47:00.625Z,2.13
2019-01-10T21:49:31.740Z,2.47
2019-01-10T21:52:03.147Z,1.87
2019-01-10T21:54:35.353Z,2.10
2019-01-10T21:57:06.417Z,2.83
2019-01-10T21:59:37.368Z,2.43
2019-01-10T22:02:08.536Z,2.40
2019-01-10T22:04:39.692Z,2.50
2019-01-10T22:07:10.820Z,2.07
2019-01-10T22:09:41.884Z,2.20
2019-01-10T22:12:13.756Z,2.73
2019-01-10T22:14:44.434Z,2.60
2019-01-10T22:17:15.304Z,2.37
2019-01-10T22:19:46.120Z,2.30
2019-01-10T22:22:17.400Z,2.47
2019-01-10T22:24:48.089Z,2.20
2019-01-10T22:27:18.741Z,2.50
2019-01-10T22:29:49.426Z,2.70
2019-01-10T22:32:20.689Z,2.53
2019-01-10T22:34:51.664Z,2.70
2019-01-10T22:37:28.807Z,2.93
2019-01-10T22:39:55.404Z,2.97
2019-01-10T22:42:28.043Z,2.80
2019-01-10T22:44:58.753Z,2.37
2019-01-10T22:47:29.613Z,2.90
2019-01-10T22:50:03.500Z,3.27
2019-01-10T22:52:34.631Z,2.83
2019-01-10T22:55:07.280Z,2.80
2019-01-10T22:57:37.877Z,2.80
2019-01-10T23:00:21.090Z,3.50
2019-01-10T23:03:03.886Z,3.00
2019-01-10T23:05:37.770Z,3.20
2019-01-10T23:08:08.512Z,2.80
2019-01-10T23:10:39.141Z,3.60
2019-01-10T23:13:18.426Z,3.13
2019-01-10T23:15:50.024Z,3.10
2019-01-10T23:18:21.265Z,3.30
2019-01-10T23:21:00.441Z,3.30
2019-01-10T23:23:31.397Z,3.17
2019-01-10T23:26:02.770Z,3.07
2019-01-10T23:28:39.921Z,3.23
2019-01-10T23:31:16.728Z,3.50
2019-01-10T23:33:47.544Z,3.90
2019-01-10T23:36:18.602Z,3.43
2019-01-10T23:39:12.873Z,3.60
2019-01-10T23:41:43.725Z,3.47
2019-01-10T23:44:14.444Z,3.50
2019-01-10T23:46:45.391Z,3.77
2019-01-10T23:49:16.208Z,3.67
2019-01-10T23:51:47.620Z,3.90
2019-01-10T23:54:19.169Z,3.60
2019-01-10T23:56:50.334Z,4.00
2019-01-10T23:59:21.124Z,3.60
